Time;durP1;ratioP1;P1;durP2;ratioP2;P2;SDS_P1;SDS_P2;PMS_P1;PMS_P2;Temp;Humidity;BMP_temperature;BMP_pressure;BME280_temperature;BME280_humidity;BME280_pressure;Samples;Min_cycle;Max_cycle;Signal;HPM_P1;HPM_P2
2024/03/03 00:00:49;;;;;;;10.95;7.43;;;19.20;57.00;;;;;;5038118;28;20402;-51
2024/03/03 00:03:14;;;;;;;10.98;7.78;;;19.20;57.60;;;;;;5029926;28;20733;-50
2024/03/03 00:05:39;;;;;;;8.60;7.43;;;19.20;57.00;;;;;;5040749;28;20096;-48
2024/03/03 00:08:05;;;;;;;10.10;7.95;;;19.20;57.00;;;;;;5035810;28;20116;-51
2024/03/03 00:10:31;;;;;;;10.10;7.63;;;19.20;57.00;;;;;;5038098;28;20030;-54
2024/03/03 00:12:57;;;;;;;10.18;7.63;;;19.20;57.00;;;;;;5036419;28;20064;-51
2024/03/03 00:15:22;;;;;;;9.93;7.70;;;19.20;57.00;;;;;;5037957;28;20118;-54
2024/03/03 00:17:48;;;;;;;9.75;7.72;;;19.20;57.00;;;;;;5037437;28;20113;-48
2024/03/03 00:20:13;;;;;;;10.98;7.47;;;19.20;57.00;;;;;;5034965;28;20040;-53
2024/03/03 00:22:39;;;;;;;9.32;7.75;;;19.20;57.00;;;;;;5031613;28;20045;-51
2024/03/03 00:25:04;;;;;;;10.43;7.75;;;19.20;57.00;;;;;;5034596;28;20672;-48
2024/03/03 00:27:30;;;;;;;8.40;7.20;;;19.20;57.00;;;;;;5028433;28;20032;-48
2024/03/03 00:29:56;;;;;;;10.32;7.75;;;19.20;57.00;;;;;;5040007;28;20033;-55
2024/03/03 00:32:21;;;;;;;12.23;7.20;;;19.20;57.00;;;;;;5036381;28;22608;-55
2024/03/03 00:34:47;;;;;;;8.93;6.90;;;19.20;57.00;;;;;;5035175;28;20427;-53
2024/03/03 00:37:13;;;;;;;11.35;8.30;;;19.20;57.00;;;;;;5036475;28;20111;-51
2024/03/03 00:39:42;;;;;;;10.48;7.60;;;19.20;57.00;;;;;;5036351;28;20431;-52
2024/03/03 00:42:07;;;;;;;9.63;7.45;;;19.20;57.00;;;;;;5032511;28;20073;-56
2024/03/03 00:44:33;;;;;;;10.65;6.88;;;19.20;57.00;;;;;;5036295;28;20147;-54
2024/03/03 00:46:58;;;;;;;8.43;7.00;;;19.20;57.00;;;;;;5032838;28;20032;-53
2024/03/03 00:49:24;;;;;;;9.85;7.10;;;19.20;57.00;;;;;;5030902;28;20082;-53
2024/03/03 00:51:49;;;;;;;10.10;7.00;;;19.20;57.00;;;;;;5035707;28;20044;-54
2024/03/03 00:54:15;;;;;;;9.75;7.40;;;19.20;57.10;;;;;;5035127;28;20164;-48
2024/03/03 00:56:41;;;;;;;9.10;7.45;;;19.20;57.00;;;;;;5031594;28;20452;-51
2024/03/03 00:59:07;;;;;;;8.98;6.60;;;19.20;57.10;;;;;;5035713;28;20032;-56
2024/03/03 01:01:32;;;;;;;9.02;7.45;;;19.20;57.00;;;;;;5035486;28;20022;-52
2024/03/03 01:03:58;;;;;;;11.18;7.05;;;19.20;57.10;;;;;;5039587;28;21078;-50
2024/03/03 01:06:23;;;;;;;8.77;7.10;;;19.20;57.10;;;;;;5032874;28;20035;-53
2024/03/03 01:08:49;;;;;;;10.02;7.57;;;19.20;57.10;;;;;;5033207;28;20025;-47
2024/03/03 01:11:14;;;;;;;8.23;6.10;;;19.20;57.20;;;;;;5029711;28;20022;-54
2024/03/03 01:13:40;;;;;;;7.28;6.40;;;19.10;57.20;;;;;;5033007;28;20032;-51
2024/03/03 01:16:05;;;;;;;10.43;6.93;;;19.10;57.20;;;;;;5031228;28;20018;-48
2024/03/03 01:18:31;;;;;;;9.93;7.57;;;19.10;57.30;;;;;;5033683;28;20512;-50
2024/03/03 01:20:56;;;;;;;9.63;7.15;;;19.00;57.70;;;;;;5038100;28;20024;-53
2024/03/03 01:23:22;;;;;;;7.70;6.28;;;19.00;57.40;;;;;;5037815;28;20037;-54
2024/03/03 01:25:49;;;;;;;8.05;6.47;;;19.00;57.40;;;;;;5039619;28;20440;-52
2024/03/03 01:28:15;;;;;;;12.88;7.57;;;19.00;57.50;;;;;;5035035;28;20034;-50
2024/03/03 01:30:41;;;;;;;9.65;6.82;;;19.00;57.50;;;;;;5028532;28;20089;-55
2024/03/03 01:33:06;;;;;;;11.40;7.03;;;18.90;57.50;;;;;;5045693;28;20031;-56
2024/03/03 01:35:32;;;;;;;7.90;6.75;;;18.90;57.50;;;;;;5033373;28;20032;-57
2024/03/03 01:37:57;;;;;;;9.88;6.85;;;18.90;57.50;;;;;;5040366;28;20482;-48
2024/03/03 01:40:23;;;;;;;10.02;7.00;;;18.90;57.50;;;;;;5036849;28;20103;-55
2024/03/03 01:42:55;;;;;;;9.93;6.88;;;18.90;57.50;;;;;;5040692;28;20104;-48
2024/03/03 01:45:24;;;;;;;7.00;6.30;;;18.90;57.50;;;;;;5035823;28;20374;-54
2024/03/03 01:47:56;;;;;;;9.57;6.90;;;18.90;57.50;;;;;;5023921;28;20453;-51
2024/03/03 01:50:24;;;;;;;12.02;7.88;;;18.90;57.50;;;;;;5036885;28;20137;-50
2024/03/03 01:52:51;;;;;;;8.02;6.60;;;18.90;57.50;;;;;;5037418;28;20036;-50
2024/03/03 01:55:20;;;;;;;8.68;6.82;;;18.90;57.50;;;;;;5037224;28;20032;-48
2024/03/03 01:57:46;;;;;;;10.95;7.10;;;19.00;57.50;;;;;;5034307;28;20087;-51
2024/03/03 02:00:13;;;;;;;9.88;7.20;;;19.00;57.50;;;;;;5035128;28;20041;-52
2024/03/03 02:02:39;;;;;;;8.88;7.28;;;19.00;57.50;;;;;;5031888;28;20037;-51
2024/03/03 02:05:07;;;;;;;8.02;6.57;;;19.00;57.50;;;;;;5031789;28;20036;-52
2024/03/03 02:07:32;;;;;;;8.00;6.88;;;19.00;57.50;;;;;;5032795;28;20088;-58
2024/03/03 02:09:59;;;;;;;8.15;6.80;;;19.00;57.50;;;;;;5035530;28;20033;-51
2024/03/03 02:12:25;;;;;;;8.73;6.55;;;19.00;57.40;;;;;;5033082;28;20025;-48
2024/03/03 02:14:51;;;;;;;9.00;7.40;;;19.00;57.50;;;;;;5035762;28;20052;-61
2024/03/03 02:17:18;;;;;;;9.93;7.05;;;19.00;58.10;;;;;;5036245;28;20494;-51
2024/03/03 02:19:43;;;;;;;7.35;6.28;;;19.00;57.40;;;;;;5034488;28;20250;-53
2024/03/03 02:22:09;;;;;;;8.05;6.78;;;19.00;57.40;;;;;;5036194;28;20491;-50
2024/03/03 02:24:34;;;;;;;7.45;6.55;;;19.00;57.40;;;;;;5024286;28;20028;-50
2024/03/03 02:27:01;;;;;;;8.35;6.68;;;19.00;57.40;;;;;;5031519;28;20079;-50
2024/03/03 02:29:28;;;;;;;7.22;6.13;;;19.00;57.30;;;;;;5033022;28;20124;-52
2024/03/03 02:31:53;;;;;;;7.30;6.10;;;19.00;57.40;;;;;;5034675;28;20090;-53
2024/03/03 02:34:19;;;;;;;9.10;6.70;;;19.00;57.40;;;;;;5037178;28;20378;-50
2024/03/03 02:36:44;;;;;;;8.98;6.63;;;19.00;57.40;;;;;;5032502;28;20040;-50
2024/03/03 02:39:10;;;;;;;8.02;6.32;;;19.00;57.40;;;;;;5033961;28;20068;-48
2024/03/03 02:41:35;;;;;;;7.50;6.25;;;19.00;57.30;;;;;;5031024;28;20135;-52
2024/03/03 02:44:01;;;;;;;7.93;6.30;;;19.00;57.30;;;;;;5032703;28;20022;-51
2024/03/03 02:46:26;;;;;;;9.23;6.10;;;19.00;57.40;;;;;;5031781;28;20037;-49
2024/03/03 02:48:52;;;;;;;8.23;6.22;;;19.00;57.30;;;;;;5033278;28;20033;-51
2024/03/03 02:51:17;;;;;;;8.63;6.28;;;19.00;57.30;;;;;;5032383;28;20021;-49
2024/03/03 02:53:42;;;;;;;8.25;6.53;;;19.00;57.90;;;;;;5034367;28;20032;-49
2024/03/03 02:56:08;;;;;;;8.13;6.13;;;19.00;57.20;;;;;;5033518;28;20029;-52
2024/03/03 02:58:34;;;;;;;7.55;6.55;;;19.00;57.30;;;;;;5035107;28;20033;-51
2024/03/03 03:00:59;;;;;;;7.32;6.43;;;19.00;57.30;;;;;;5033906;28;20029;-50
2024/03/03 03:03:25;;;;;;;7.95;5.93;;;19.00;57.30;;;;;;5033236;28;20075;-50
2024/03/03 03:05:50;;;;;;;7.32;6.55;;;19.00;57.30;;;;;;5021033;28;20276;-49
2024/03/03 03:08:16;;;;;;;7.18;6.00;;;19.00;57.30;;;;;;5001297;28;20557;-50
2024/03/03 03:10:42;;;;;;;6.78;6.00;;;19.00;57.30;;;;;;5043878;28;20048;-49
2024/03/03 03:13:07;;;;;;;8.38;6.28;;;19.00;57.30;;;;;;5030504;28;20128;-52
2024/03/03 03:15:35;;;;;;;7.97;6.80;;;19.00;57.30;;;;;;5030819;28;20060;-48
2024/03/03 03:18:05;;;;;;;7.25;5.90;;;19.00;57.30;;;;;;5031167;28;20041;-51
2024/03/03 03:20:30;;;;;;;9.27;6.53;;;19.00;57.30;;;;;;5033372;28;20029;-51
2024/03/03 03:22:56;;;;;;;9.40;6.90;;;19.00;57.30;;;;;;5033477;28;20025;-52
2024/03/03 03:25:21;;;;;;;10.10;6.70;;;19.00;57.30;;;;;;5027945;28;20025;-50
2024/03/03 03:27:47;;;;;;;8.85;6.72;;;19.00;57.40;;;;;;5031935;28;20037;-49
2024/03/03 03:30:12;;;;;;;9.27;6.93;;;19.00;57.40;;;;;;5028595;28;20141;-49
2024/03/03 03:32:39;;;;;;;8.70;6.70;;;19.00;57.50;;;;;;5029376;28;20068;-51
2024/03/03 03:35:06;;;;;;;7.97;6.63;;;18.90;57.60;;;;;;5029967;28;20029;-51
2024/03/03 03:37:31;;;;;;;7.82;6.25;;;18.90;57.40;;;;;;5030237;28;20040;-49
2024/03/03 03:39:57;;;;;;;7.60;6.40;;;18.90;57.50;;;;;;5034705;28;20033;-50
2024/03/03 03:42:22;;;;;;;7.38;6.22;;;18.90;57.40;;;;;;5026091;28;20030;-51
2024/03/03 03:44:48;;;;;;;9.20;6.57;;;18.90;57.50;;;;;;5032947;28;20025;-51
2024/03/03 03:47:13;;;;;;;8.50;6.78;;;18.90;57.50;;;;;;5030731;28;20532;-52
2024/03/03 03:49:39;;;;;;;7.82;6.82;;;18.90;57.50;;;;;;5034305;28;20052;-49
2024/03/03 03:52:05;;;;;;;6.50;5.88;;;18.90;57.50;;;;;;5027629;28;20115;-51
2024/03/03 03:54:31;;;;;;;7.38;6.43;;;18.90;57.50;;;;;;5030113;28;20099;-51
2024/03/03 03:56:58;;;;;;;7.97;7.15;;;18.90;57.50;;;;;;5027239;28;20029;-50
2024/03/03 03:59:24;;;;;;;7.45;5.93;;;18.80;57.50;;;;;;5028189;28;20041;-51
2024/03/03 04:01:51;;;;;;;8.13;6.35;;;18.90;57.60;;;;;;5029838;28;20033;-51
2024/03/03 04:04:16;;;;;;;6.80;6.07;;;18.90;57.60;;;;;;5031534;28;20055;-50
2024/03/03 04:06:42;;;;;;;8.05;6.70;;;18.90;57.60;;;;;;5028869;28;21765;-48
2024/03/03 04:09:07;;;;;;;8.38;6.55;;;18.90;57.60;;;;;;5028745;28;20031;-49
2024/03/03 04:11:33;;;;;;;8.77;6.57;;;18.90;57.60;;;;;;5029603;28;20033;-52
2024/03/03 04:13:58;;;;;;;8.75;6.38;;;18.80;57.60;;;;;;5028876;28;20121;-52
2024/03/03 04:16:24;;;;;;;7.75;6.75;;;18.90;57.70;;;;;;5023943;28;20022;-51
2024/03/03 04:18:49;;;;;;;7.50;6.68;;;18.80;57.50;;;;;;5032794;28;20017;-50
2024/03/03 04:21:15;;;;;;;7.35;6.38;;;18.80;57.60;;;;;;5026888;28;20112;-50
2024/03/03 04:23:40;;;;;;;7.03;6.32;;;18.80;57.60;;;;;;5027972;28;20991;-51
2024/03/03 04:26:06;;;;;;;8.48;6.15;;;18.80;57.60;;;;;;5027487;28;20025;-51
2024/03/03 04:28:33;;;;;;;7.70;6.93;;;18.80;57.60;;;;;;5028801;28;20036;-49
2024/03/03 04:30:58;;;;;;;7.00;6.18;;;18.80;57.60;;;;;;5030120;28;20112;-51
2024/03/03 04:33:24;;;;;;;7.68;6.60;;;18.80;57.60;;;;;;5010816;28;20116;-50
2024/03/03 04:35:49;;;;;;;9.02;6.90;;;18.80;57.60;;;;;;5029552;28;20029;-50
2024/03/03 04:38:15;;;;;;;7.13;6.35;;;18.80;57.60;;;;;;5026989;28;20026;-50
2024/03/03 04:40:43;;;;;;;7.70;6.15;;;18.80;57.60;;;;;;5025268;28;20602;-51
2024/03/03 04:43:09;;;;;;;7.85;6.95;;;18.80;57.60;;;;;;5032691;28;20032;-52
2024/03/03 04:45:35;;;;;;;6.90;6.25;;;18.80;57.60;;;;;;5024150;28;20045;-50
2024/03/03 04:48:00;;;;;;;7.38;6.40;;;18.80;57.60;;;;;;5027436;28;20029;-51
2024/03/03 04:50:27;;;;;;;7.50;6.43;;;18.80;57.60;;;;;;5023292;28;20029;-49
2024/03/03 04:52:53;;;;;;;7.15;6.45;;;18.80;57.60;;;;;;5032119;28;20056;-52
2024/03/03 04:55:18;;;;;;;6.80;6.05;;;18.80;57.60;;;;;;5027195;28;20029;-49
2024/03/03 04:57:44;;;;;;;7.18;6.47;;;18.80;57.60;;;;;;5033719;28;20037;-52
2024/03/03 05:00:10;;;;;;;6.72;5.95;;;18.90;57.60;;;;;;5037948;28;20029;-50
2024/03/03 05:02:36;;;;;;;7.63;6.75;;;18.80;57.60;;;;;;5035513;28;20553;-49
2024/03/03 05:05:02;;;;;;;8.35;6.13;;;18.80;57.60;;;;;;5027445;28;20471;-51
2024/03/03 05:07:27;;;;;;;7.30;6.60;;;18.80;57.50;;;;;;5035588;28;20057;-49
2024/03/03 05:09:53;;;;;;;8.10;6.65;;;18.80;57.50;;;;;;5038511;28;20043;-48
2024/03/03 05:12:18;;;;;;;8.43;5.95;;;18.80;57.50;;;;;;5035586;28;20486;-49
2024/03/03 05:14:44;;;;;;;7.55;6.80;;;18.80;57.50;;;;;;5036030;28;20056;-56
2024/03/03 05:17:09;;;;;;;7.22;6.53;;;18.80;57.50;;;;;;5033138;28;20585;-48
2024/03/03 05:19:35;;;;;;;6.80;6.10;;;18.80;57.50;;;;;;5033124;28;20066;-50
2024/03/03 05:22:00;;;;;;;8.93;6.47;;;18.80;57.50;;;;;;5031927;28;20069;-52
2024/03/03 05:24:26;;;;;;;6.95;6.35;;;18.80;57.50;;;;;;5034481;28;20044;-54
2024/03/03 05:26:54;;;;;;;6.75;6.05;;;18.80;57.50;;;;;;5029757;28;20033;-51
2024/03/03 05:29:20;;;;;;;7.47;6.78;;;18.90;57.50;;;;;;5031375;28;20655;-51
2024/03/03 05:31:45;;;;;;;8.38;6.55;;;18.80;57.40;;;;;;5033029;28;20059;-48
2024/03/03 05:34:12;;;;;;;7.00;6.30;;;18.80;57.40;;;;;;5030907;28;20049;-51
2024/03/03 05:36:41;;;;;;;7.00;6.18;;;18.90;57.50;;;;;;5028500;28;20041;-48
2024/03/03 05:39:07;;;;;;;9.45;7.63;;;18.90;57.50;;;;;;5034284;28;20033;-53
2024/03/03 05:41:33;;;;;;;7.43;6.68;;;18.80;57.40;;;;;;5032180;28;20040;-52
2024/03/03 05:43:59;;;;;;;7.22;6.53;;;18.90;57.40;;;;;;5036389;28;20025;-48
2024/03/03 05:46:24;;;;;;;7.28;6.47;;;18.90;57.40;;;;;;5027910;28;20041;-49
2024/03/03 05:48:49;;;;;;;7.20;6.47;;;18.90;57.30;;;;;;5026207;28;20051;-51
2024/03/03 05:51:16;;;;;;;9.23;7.20;;;18.90;57.30;;;;;;5026780;28;20079;-55
2024/03/03 05:53:42;;;;;;;7.05;6.32;;;18.90;57.30;;;;;;5028784;28;20048;-51
2024/03/03 05:56:08;;;;;;;7.05;6.35;;;18.90;57.30;;;;;;5027335;28;20818;-49
2024/03/03 05:58:33;;;;;;;7.43;6.60;;;18.90;57.30;;;;;;5030903;28;20040;-57
2024/03/03 06:00:59;;;;;;;6.57;5.97;;;18.90;57.20;;;;;;5038015;28;20050;-48
2024/03/03 06:03:25;;;;;;;7.30;6.20;;;18.90;57.20;;;;;;5032795;28;20683;-57
2024/03/03 06:05:50;;;;;;;7.35;6.18;;;18.90;57.20;;;;;;5031526;28;20039;-48
2024/03/03 06:08:16;;;;;;;7.22;6.50;;;18.90;57.20;;;;;;5037334;28;20390;-58
2024/03/03 06:10:42;;;;;;;6.95;6.20;;;19.00;57.20;;;;;;5027235;28;20030;-52
2024/03/03 06:13:07;;;;;;;7.25;6.55;;;19.00;57.20;;;;;;5032508;28;20037;-50
2024/03/03 06:15:33;;;;;;;8.55;6.20;;;19.00;57.20;;;;;;5028565;28;20029;-50
2024/03/03 06:17:58;;;;;;;7.68;6.88;;;19.00;57.20;;;;;;5032981;28;20045;-49
2024/03/03 06:20:24;;;;;;;6.95;6.03;;;19.00;57.20;;;;;;5033603;28;20033;-50
2024/03/03 06:22:49;;;;;;;7.25;6.30;;;19.00;57.80;;;;;;5033326;28;20493;-52
2024/03/03 06:25:15;;;;;;;7.00;6.30;;;19.00;57.20;;;;;;5027785;28;20029;-48
2024/03/03 06:27:40;;;;;;;7.32;6.55;;;19.00;57.10;;;;;;5034542;28;20475;-53
2024/03/03 06:30:08;;;;;;;8.30;6.53;;;19.00;57.00;;;;;;5029819;28;20029;-52
2024/03/03 06:32:34;;;;;;;7.55;6.82;;;19.00;57.00;;;;;;5032637;28;20037;-53
2024/03/03 06:35:00;;;;;;;7.97;6.13;;;19.00;57.00;;;;;;5034382;28;20708;-52
2024/03/03 06:37:26;;;;;;;8.65;6.72;;;19.00;57.00;;;;;;5029768;28;20036;-50
2024/03/03 06:39:51;;;;;;;7.07;6.40;;;19.10;57.10;;;;;;5023172;28;20028;-53
2024/03/03 06:42:17;;;;;;;7.38;6.57;;;19.10;57.00;;;;;;5031854;28;20037;-49
2024/03/03 06:44:42;;;;;;;7.20;6.50;;;19.10;57.00;;;;;;5031216;28;20108;-53
2024/03/03 06:47:08;;;;;;;7.80;6.43;;;19.00;56.90;;;;;;5035858;28;20037;-52
2024/03/03 06:49:34;;;;;;;7.10;6.38;;;19.00;56.90;;;;;;5028618;28;20046;-58
2024/03/03 06:51:59;;;;;;;6.93;6.22;;;19.10;56.90;;;;;;5042166;28;20037;-49
2024/03/03 06:54:25;;;;;;;8.05;6.38;;;19.10;56.90;;;;;;5031460;28;20041;-53
2024/03/03 06:56:50;;;;;;;7.38;6.53;;;19.10;56.90;;;;;;5032391;28;20460;-49
2024/03/03 06:59:16;;;;;;;7.18;6.07;;;19.10;56.90;;;;;;5028682;28;20029;-49
2024/03/03 07:01:41;;;;;;;6.93;6.32;;;19.10;56.90;;;;;;5032562;28;20037;-51
2024/03/03 07:04:20;;;;;;;7.82;5.80;;;19.10;56.90;;;;;;5031413;28;20029;-52
2024/03/03 07:06:46;;;;;;;6.55;5.95;;;19.10;57.00;;;;;;5030064;28;20108;-49
2024/03/03 07:09:12;;;;;;;6.80;6.10;;;19.10;56.90;;;;;;5037008;28;20123;-53
2024/03/03 07:11:37;;;;;;;6.75;6.15;;;19.10;56.90;;;;;;5035643;28;20025;-52
2024/03/03 07:14:03;;;;;;;7.47;6.30;;;19.10;56.90;;;;;;5031095;28;20371;-49
2024/03/03 07:16:29;;;;;;;7.15;6.45;;;19.10;56.90;;;;;;5011770;28;20540;-52
2024/03/03 07:18:54;;;;;;;6.82;6.13;;;19.10;56.90;;;;;;5034662;28;20033;-54
2024/03/03 07:21:20;;;;;;;7.22;6.40;;;19.10;56.80;;;;;;5034491;28;20521;-51
2024/03/03 07:23:45;;;;;;;6.88;6.18;;;19.10;56.90;;;;;;5032195;28;20033;-48
2024/03/03 07:26:11;;;;;;;7.07;6.38;;;19.10;56.90;;;;;;5031245;28;20771;-55
2024/03/03 07:28:37;;;;;;;6.85;5.57;;;19.10;56.90;;;;;;5021607;28;20108;-57
2024/03/03 07:31:02;;;;;;;6.82;5.95;;;19.10;56.90;;;;;;5034200;28;20082;-52
2024/03/03 07:33:28;;;;;;;7.03;6.32;;;19.10;56.80;;;;;;5034433;28;20055;-52
2024/03/03 07:35:53;;;;;;;6.70;5.93;;;19.10;56.90;;;;;;5036022;28;20120;-49
2024/03/03 07:38:19;;;;;;;6.93;6.22;;;19.10;56.80;;;;;;5030887;28;20025;-55
2024/03/03 07:40:45;;;;;;;7.45;6.75;;;19.10;56.90;;;;;;5031560;28;20178;-49
2024/03/03 07:43:11;;;;;;;6.53;5.72;;;19.10;56.90;;;;;;5030690;28;20095;-56
2024/03/03 07:45:37;;;;;;;7.22;6.25;;;19.10;56.80;;;;;;5032265;28;20456;-53
2024/03/03 07:48:03;;;;;;;7.43;6.18;;;19.10;56.80;;;;;;5030615;28;20040;-54
2024/03/03 07:50:29;;;;;;;7.15;6.03;;;19.10;56.80;;;;;;5030231;28;20559;-54
2024/03/03 07:52:55;;;;;;;7.75;6.00;;;19.10;56.90;;;;;;5030267;28;20063;-55
2024/03/03 07:55:20;;;;;;;6.90;6.20;;;19.10;56.80;;;;;;5027202;28;20048;-56
2024/03/03 07:57:46;;;;;;;6.32;5.70;;;19.10;56.80;;;;;;5029438;28;21403;-52
2024/03/03 08:00:12;;;;;;;5.75;5.25;;;19.20;56.90;;;;;;5032113;28;20042;-50
2024/03/03 08:02:37;;;;;;;6.57;5.82;;;19.10;56.80;;;;;;5035619;28;20663;-51
2024/03/03 08:05:04;;;;;;;7.22;5.60;;;19.20;56.90;;;;;;5029239;28;20040;-50
2024/03/03 08:07:30;;;;;;;6.68;5.97;;;19.20;56.90;;;;;;5032405;28;20494;-49
2024/03/03 08:09:55;;;;;;;6.78;5.97;;;19.20;56.90;;;;;;5031972;28;20036;-50
2024/03/03 08:12:23;;;;;;;6.30;5.63;;;19.10;56.80;;;;;;5035535;28;20025;-48
2024/03/03 08:14:48;;;;;;;6.93;6.22;;;19.20;56.80;;;;;;5032832;28;20033;-51
2024/03/03 08:17:14;;;;;;;6.50;5.70;;;19.20;56.80;;;;;;5038165;28;20401;-49
2024/03/03 08:19:39;;;;;;;6.35;5.75;;;19.20;56.80;;;;;;5031705;28;20097;-50
2024/03/03 08:22:05;;;;;;;6.43;5.82;;;19.20;56.80;;;;;;5034887;28;20478;-51
2024/03/03 08:24:32;;;;;;;6.68;6.03;;;19.20;56.80;;;;;;5032550;28;20072;-49
2024/03/03 08:26:57;;;;;;;5.53;5.00;;;19.20;56.80;;;;;;5037770;28;20111;-49
2024/03/03 08:29:23;;;;;;;7.18;6.38;;;19.20;56.80;;;;;;5032137;28;20032;-49
2024/03/03 08:31:48;;;;;;;6.25;5.60;;;19.20;56.80;;;;;;5038223;28;20040;-48
2024/03/03 08:34:14;;;;;;;6.43;5.82;;;19.20;56.80;;;;;;5034647;28;20116;-51
2024/03/03 08:36:40;;;;;;;6.22;5.55;;;19.20;56.80;;;;;;5043638;28;20021;-50
2024/03/03 08:39:06;;;;;;;6.25;5.63;;;19.20;56.80;;;;;;5037559;28;20155;-50
2024/03/03 08:41:33;;;;;;;5.80;5.20;;;19.20;56.80;;;;;;5042925;28;20498;-50
2024/03/03 08:43:59;;;;;;;6.80;6.13;;;19.20;56.90;;;;;;5034068;28;20036;-51
2024/03/03 08:46:24;;;;;;;7.40;5.50;;;19.10;56.90;;;;;;5041700;28;20040;-47
2024/03/03 08:48:50;;;;;;;6.38;5.78;;;19.10;57.00;;;;;;5038342;28;20032;-51
2024/03/03 08:51:15;;;;;;;6.35;5.75;;;19.10;57.00;;;;;;5041090;28;20060;-49
2024/03/03 08:53:41;;;;;;;6.63;5.93;;;19.00;57.10;;;;;;5036521;28;20083;-50
2024/03/03 08:56:06;;;;;;;5.65;5.07;;;19.00;57.10;;;;;;5044434;28;20044;-50
2024/03/03 08:58:32;;;;;;;6.85;6.15;;;19.00;57.20;;;;;;5034033;28;20045;-51
2024/03/03 09:00:57;;;;;;;5.80;5.30;;;19.00;57.30;;;;;;5040938;28;20038;-48
2024/03/03 09:03:23;;;;;;;6.03;5.43;;;19.00;57.30;;;;;;5030534;28;20022;-50
2024/03/03 09:05:49;;;;;;;6.95;6.25;;;18.90;57.30;;;;;;5040794;28;20037;-50
2024/03/03 09:08:14;;;;;;;7.03;6.25;;;18.90;57.40;;;;;;5037237;28;20032;-49
2024/03/03 09:10:40;;;;;;;7.68;6.50;;;18.90;57.40;;;;;;5023994;28;20040;-61
2024/03/03 09:13:05;;;;;;;10.48;7.60;;;18.90;57.40;;;;;;5038683;28;20082;-49
2024/03/03 09:15:31;;;;;;;9.98;7.45;;;18.90;57.40;;;;;;5040672;28;20489;-47
2024/03/03 09:17:56;;;;;;;8.10;7.05;;;19.00;57.40;;;;;;5040079;28;20749;-51
2024/03/03 09:20:22;;;;;;;9.15;7.40;;;19.00;57.50;;;;;;5039362;28;20025;-51
2024/03/03 09:22:47;;;;;;;11.65;8.52;;;19.00;57.30;;;;;;5036782;28;20029;-49
2024/03/03 09:25:13;;;;;;;9.23;7.55;;;19.00;57.40;;;;;;5040255;28;20127;-52
2024/03/03 09:27:38;;;;;;;7.70;6.90;;;19.00;57.30;;;;;;5034801;28;20036;-52
2024/03/03 09:30:05;;;;;;;10.88;7.65;;;19.00;57.30;;;;;;5038870;28;20167;-48
2024/03/03 09:32:31;;;;;;;10.40;7.70;;;19.00;57.30;;;;;;5034757;28;20056;-49
2024/03/03 09:34:56;;;;;;;8.45;7.38;;;19.00;57.20;;;;;;5038900;28;20029;-57
2024/03/03 09:37:22;;;;;;;9.45;7.43;;;19.00;57.20;;;;;;5028226;28;20033;-51
2024/03/03 09:39:47;;;;;;;11.73;8.35;;;19.10;57.10;;;;;;5040529;28;20079;-50
2024/03/03 09:42:14;;;;;;;9.90;7.45;;;19.00;57.00;;;;;;5038424;28;20032;-50
2024/03/03 09:44:43;;;;;;;11.27;7.85;;;19.10;57.10;;;;;;5038186;28;20036;-52
2024/03/03 09:47:11;;;;;;;9.88;7.35;;;19.10;57.00;;;;;;5025521;28;20033;-52
2024/03/03 09:49:38;;;;;;;11.82;8.35;;;19.10;57.00;;;;;;5017472;28;20048;-51
2024/03/03 09:52:11;;;;;;;10.98;8.75;;;19.10;57.00;;;;;;5029096;28;20502;-50
2024/03/03 09:54:39;;;;;;;11.02;7.85;;;19.20;56.90;;;;;;5038333;28;20052;-53
2024/03/03 09:57:11;;;;;;;10.00;7.78;;;19.20;57.00;;;;;;5030376;28;20037;-49
2024/03/03 09:59:38;;;;;;;12.10;8.52;;;19.20;56.80;;;;;;5014913;28;20508;-49
2024/03/03 10:02:07;;;;;;;10.20;8.63;;;19.20;56.80;;;;;;5028766;28;21283;-51
2024/03/03 10:04:34;;;;;;;10.95;7.80;;;19.20;56.80;;;;;;5031180;28;20449;-51
2024/03/03 10:07:03;;;;;;;11.35;8.32;;;19.20;56.70;;;;;;5019616;28;20405;-51
2024/03/03 10:09:30;;;;;;;9.80;7.93;;;19.30;56.70;;;;;;5030522;28;20122;-51
2024/03/03 10:11:57;;;;;;;10.10;8.50;;;19.30;56.60;;;;;;5030306;28;20040;-51
2024/03/03 10:14:26;;;;;;;9.23;8.25;;;19.30;56.60;;;;;;5037549;28;20134;-49
2024/03/03 10:16:51;;;;;;;9.52;8.25;;;19.30;56.60;;;;;;5026265;28;20025;-52
2024/03/03 10:19:17;;;;;;;10.95;8.63;;;19.30;56.60;;;;;;5026420;28;20434;-52
2024/03/03 10:21:42;;;;;;;10.82;8.43;;;19.40;56.60;;;;;;5029688;28;20060;-49
2024/03/03 10:24:19;;;;;;;9.57;8.43;;;19.30;56.60;;;;;;5035814;28;20114;-50
2024/03/03 10:26:45;;;;;;;10.75;8.20;;;19.40;56.60;;;;;;5033458;28;20103;-49
2024/03/03 10:29:10;;;;;;;9.32;8.38;;;19.30;56.50;;;;;;5029958;28;20025;-54
2024/03/03 10:31:35;;;;;;;9.25;8.25;;;19.40;56.50;;;;;;5044631;23;20056;-50
2024/03/03 10:34:01;;;;;;;11.95;8.20;;;19.30;56.50;;;;;;5015070;28;20026;-49
2024/03/03 10:36:28;;;;;;;10.13;8.35;;;19.40;56.50;;;;;;5017226;28;20083;-49
2024/03/03 10:38:54;;;;;;;9.32;8.27;;;19.40;56.50;;;;;;5013631;28;20026;-52
2024/03/03 10:41:20;;;;;;;11.35;8.40;;;19.40;56.40;;;;;;5015770;28;20172;-51
2024/03/03 10:43:45;;;;;;;9.18;8.13;;;19.40;56.40;;;;;;5011072;28;20037;-52
2024/03/03 10:46:12;;;;;;;9.40;8.38;;;19.40;56.30;;;;;;5014769;28;20040;-52
2024/03/03 10:48:40;;;;;;;11.05;8.77;;;19.40;56.40;;;;;;5009089;28;20026;-52
2024/03/03 10:51:07;;;;;;;9.30;8.10;;;19.50;56.40;;;;;;5004471;28;20041;-50
2024/03/03 10:53:32;;;;;;;10.82;7.85;;;19.50;56.40;;;;;;5009897;28;20038;-52
2024/03/03 10:55:58;;;;;;;9.75;8.15;;;19.50;56.40;;;;;;5019981;28;20080;-49
2024/03/03 10:58:26;;;;;;;9.27;8.27;;;19.50;56.30;;;;;;5010019;28;20168;-49
2024/03/03 11:00:53;;;;;;;9.32;8.30;;;19.50;56.30;;;;;;5013381;28;20108;-49
2024/03/03 11:03:19;;;;;;;9.55;8.50;;;19.50;56.30;;;;;;5003569;28;20034;-50
2024/03/03 11:05:46;;;;;;;8.73;7.78;;;19.50;56.30;;;;;;5022242;28;20117;-48
2024/03/03 11:08:13;;;;;;;11.20;8.77;;;19.50;56.30;;;;;;5011899;28;20474;-52
2024/03/03 11:10:39;;;;;;;10.05;8.48;;;19.50;56.20;;;;;;5017377;28;20041;-50
2024/03/03 11:13:06;;;;;;;10.40;8.57;;;19.50;56.20;;;;;;5008237;28;20025;-49
2024/03/03 11:15:35;;;;;;;11.90;8.15;;;19.50;56.20;;;;;;5001063;28;20022;-52
2024/03/03 11:18:04;;;;;;;9.77;8.40;;;19.50;56.20;;;;;;5018390;28;20059;-51
2024/03/03 11:20:40;;;;;;;9.73;8.65;;;19.50;56.20;;;;;;5005784;28;20121;-51
2024/03/03 11:23:29;;;;;;;10.82;8.30;;;19.50;56.20;;;;;;4993329;28;20716;-48
2024/03/03 11:26:02;;;;;;;9.73;8.75;;;19.50;56.20;;;;;;5012751;28;20049;-48
2024/03/03 11:28:28;;;;;;;8.57;7.68;;;19.50;56.20;;;;;;5008026;28;20549;-54
2024/03/03 11:30:54;;;;;;;9.38;8.38;;;19.50;56.30;;;;;;5010504;28;20053;-49
2024/03/03 11:33:22;;;;;;;9.90;7.82;;;19.50;56.30;;;;;;5007395;28;20042;-52
2024/03/03 11:35:49;;;;;;;9.50;8.20;;;19.40;56.40;;;;;;5007443;28;20212;-50
2024/03/03 11:38:14;;;;;;;9.98;8.70;;;19.40;56.40;;;;;;5011624;28;20044;-52
2024/03/03 11:40:41;;;;;;;11.75;9.07;;;19.40;56.50;;;;;;5012171;28;20057;-55
2024/03/03 11:43:08;;;;;;;9.98;8.88;;;19.40;56.60;;;;;;5005521;28;20684;-52
2024/03/03 11:45:44;;;;;;;9.50;8.43;;;19.30;56.60;;;;;;5007710;28;20173;-49
2024/03/03 11:48:12;;;;;;;10.52;8.77;;;19.30;56.70;;;;;;5012183;28;20144;-49
2024/03/03 11:50:37;;;;;;;9.27;8.32;;;19.30;56.80;;;;;;5010600;28;20041;-49
2024/03/03 11:53:03;;;;;;;9.45;8.10;;;19.30;56.80;;;;;;5011297;28;20033;-54
2024/03/03 11:55:36;;;;;;;9.77;8.70;;;19.30;56.80;;;;;;5010561;28;20036;-52
2024/03/03 11:58:02;;;;;;;10.45;8.50;;;19.30;56.90;;;;;;5009311;28;20108;-51
2024/03/03 12:00:29;;;;;;;9.48;8.48;;;19.20;56.80;;;;;;5013998;28;20082;-50
2024/03/03 12:03:00;;;;;;;8.48;7.57;;;19.20;56.80;;;;;;4990028;28;20040;-52
2024/03/03 12:05:26;;;;;;;9.57;8.10;;;19.20;56.80;;;;;;5010104;28;20041;-54
2024/03/03 12:07:53;;;;;;;12.65;8.63;;;19.20;56.80;;;;;;5016677;28;20034;-54
2024/03/03 12:10:23;;;;;;;7.85;7.10;;;19.20;56.80;;;;;;5010701;28;20395;-54
2024/03/03 12:13:01;;;;;;;8.93;8.02;;;19.20;56.90;;;;;;5021116;28;20037;-53
2024/03/03 12:15:28;;;;;;;8.57;7.68;;;19.20;56.80;;;;;;5011806;28;20028;-49
2024/03/03 12:17:56;;;;;;;8.55;7.75;;;19.30;56.90;;;;;;5018771;28;20030;-54
2024/03/03 12:20:24;;;;;;;9.73;8.73;;;19.30;56.90;;;;;;5011151;28;20491;-53
2024/03/03 12:22:50;;;;;;;12.13;10.68;;;19.20;56.90;;;;;;5014237;28;20513;-50
2024/03/03 12:25:18;;;;;;;12.88;11.48;;;19.30;56.90;;;;;;5001639;28;20448;-51
2024/03/03 12:27:51;;;;;;;14.57;12.35;;;19.30;56.90;;;;;;5019318;28;20092;-54
2024/03/03 12:30:33;;;;;;;12.93;11.52;;;19.30;57.00;;;;;;5006928;28;20194;-49
2024/03/03 12:33:04;;;;;;;13.60;11.93;;;19.30;57.20;;;;;;5011912;28;20528;-48
2024/03/03 12:35:30;;;;;;;14.25;12.77;;;19.30;57.20;;;;;;5008696;28;20402;-55
2024/03/03 12:37:56;;;;;;;14.13;12.60;;;19.30;57.40;;;;;;5012296;28;20025;-50
2024/03/03 12:40:24;;;;;;;15.60;12.95;;;19.30;57.30;;;;;;5014470;28;20059;-53